createdAt,value
2023-05-25T00:02:24.924Z,4.23
2023-05-25T00:04:52.233Z,4.17
2023-05-25T00:07:19.213Z,4.80
2023-05-25T00:09:46.666Z,4.50
2023-05-25T00:12:14.382Z,4.20
2023-05-25T00:14:41.064Z,4.33
2023-05-25T00:17:10.299Z,4.77
2023-05-25T00:19:42.459Z,5.33
2023-05-25T00:22:10.635Z,5.43
2023-05-25T00:24:38.974Z,4.93
2023-05-25T00:27:07.306Z,5.20
2023-05-25T00:29:35.246Z,4.70
2023-05-25T00:32:02.930Z,5.03
2023-05-25T00:34:29.622Z,4.63
2023-05-25T00:36:56.372Z,5.60
2023-05-25T00:39:23.249Z,4.80
2023-05-25T00:41:50.335Z,4.93
2023-05-25T00:44:21.896Z,5.30
2023-05-25T00:46:50.852Z,5.57
2023-05-25T00:49:19.465Z,4.40
2023-05-25T00:51:47.845Z,4.97
2023-05-25T00:54:18.597Z,4.47
2023-05-25T00:56:52.989Z,4.40
2023-05-25T00:59:28.647Z,4.83
2023-05-25T01:01:56.530Z,5.30
2023-05-25T01:04:23.853Z,4.90
2023-05-25T01:06:50.808Z,5.20
2023-05-25T01:09:22.495Z,5.07
2023-05-25T01:11:51.520Z,5.43
2023-05-25T01:14:21.946Z,5.00
2023-05-25T01:16:49.756Z,5.23
2023-05-25T01:19:17.245Z,4.80
2023-05-25T01:22:11.704Z,6.17
2023-05-25T01:24:43.331Z,5.20
2023-05-25T01:27:24.904Z,4.43
2023-05-25T01:29:53.517Z,4.03
2023-05-25T01:32:20.521Z,4.73
2023-05-25T01:34:48.744Z,3.90
2023-05-25T01:37:17.511Z,4.17
2023-05-25T01:39:44.227Z,3.50
2023-05-25T01:42:10.999Z,3.97
2023-05-25T01:44:39.029Z,4.13
2023-05-25T01:47:11.545Z,4.40
2023-05-25T01:49:50.498Z,3.87
2023-05-25T01:52:26.527Z,4.13
2023-05-25T01:54:57.455Z,4.47
2023-05-25T01:57:26.405Z,4.00
2023-05-25T02:00:00.097Z,4.90
2023-05-25T02:02:31.864Z,4.27
2023-05-25T02:04:59.508Z,4.67
2023-05-25T02:07:26.206Z,4.03
2023-05-25T02:09:52.960Z,4.17
2023-05-25T02:12:19.981Z,3.90
2023-05-25T02:14:48.786Z,4.40
2023-05-25T02:17:17.913Z,4.17
2023-05-25T02:19:45.936Z,4.30
2023-05-25T02:22:12.633Z,3.83
2023-05-25T02:24:39.405Z,3.90
2023-05-25T02:27:06.949Z,3.80
2023-05-25T02:29:33.625Z,3.90
2023-05-25T02:32:00.473Z,3.90
2023-05-25T02:34:27.132Z,4.23
2023-05-25T02:36:53.866Z,3.70
2023-05-25T02:39:20.526Z,3.80
2023-05-25T02:41:47.205Z,3.70
2023-05-25T02:44:13.844Z,4.57
2023-05-25T02:46:40.629Z,3.73
2023-05-25T02:49:07.422Z,3.57
2023-05-25T02:51:34.133Z,4.10
2023-05-25T02:54:00.851Z,3.67
2023-05-25T02:56:27.730Z,4.43
2023-05-25T02:58:54.604Z,3.60
2023-05-25T03:01:21.436Z,4.47
2023-05-25T03:03:52.500Z,4.20
2023-05-25T03:06:21.546Z,4.90
2023-05-25T03:08:48.432Z,3.67
2023-05-25T03:11:15.663Z,3.97
2023-05-25T03:13:42.350Z,4.27
2023-05-25T03:16:09.166Z,4.70
2023-05-25T03:18:36.278Z,4.50
2023-05-25T03:21:02.960Z,4.37
2023-05-25T03:23:29.659Z,4.53
2023-05-25T03:25:56.671Z,4.03
2023-05-25T03:28:23.324Z,4.80
2023-05-25T03:30:50.098Z,3.70
2023-05-25T03:33:16.790Z,4.50
2023-05-25T03:35:43.734Z,5.00
2023-05-25T03:38:10.569Z,4.43
2023-05-25T03:40:37.250Z,4.50
2023-05-25T03:43:03.927Z,4.97
2023-05-25T03:45:30.783Z,4.80
2023-05-25T03:47:57.464Z,5.00
2023-05-25T03:50:24.211Z,6.00
2023-05-25T03:52:50.845Z,5.03
2023-05-25T03:55:17.721Z,5.57
2023-05-25T03:57:44.408Z,5.47
2023-05-25T04:00:11.854Z,5.20
2023-05-25T04:02:38.540Z,5.40
2023-05-25T04:05:05.755Z,5.23
2023-05-25T04:07:32.545Z,4.40
2023-05-25T04:09:59.837Z,5.20
2023-05-25T04:12:27.630Z,5.60
2023-05-25T04:14:54.294Z,5.37
2023-05-25T04:17:24.903Z,5.20
2023-05-25T04:19:52.369Z,4.63
2023-05-25T04:22:19.226Z,4.40
2023-05-25T04:24:46.508Z,5.03
2023-05-25T04:27:14.442Z,4.87
2023-05-25T04:29:44.198Z,5.80
2023-05-25T04:32:10.999Z,5.60
2023-05-25T04:34:37.809Z,5.23
2023-05-25T04:37:05.797Z,5.77
2023-05-25T04:39:32.944Z,5.90
2023-05-25T04:42:02.125Z,5.60
2023-05-25T04:44:29.882Z,5.33
2023-05-25T04:46:56.833Z,6.03
2023-05-25T04:49:23.514Z,6.07
2023-05-25T04:51:50.348Z,6.03
2023-05-25T04:54:17.146Z,6.00
2023-05-25T04:56:44.191Z,6.03
2023-05-25T04:59:11.246Z,5.90
2023-05-25T05:01:41.349Z,6.20
2023-05-25T05:04:08.571Z,7.23
2023-05-25T05:06:36.581Z,6.60
2023-05-25T05:09:03.705Z,5.80
2023-05-25T05:11:30.517Z,5.33
2023-05-25T05:13:57.185Z,5.73
2023-05-25T05:16:23.952Z,5.23
2023-05-25T05:18:50.711Z,5.10
2023-05-25T05:21:17.363Z,5.03
2023-05-25T05:23:44.102Z,5.23
2023-05-25T05:26:11.837Z,6.20
2023-05-25T05:28:38.558Z,5.70
2023-05-25T05:31:05.493Z,5.50
2023-05-25T05:33:32.317Z,6.30
2023-05-25T05:35:59.597Z,7.23
2023-05-25T05:38:26.831Z,6.40
2023-05-25T05:40:53.626Z,6.73
2023-05-25T05:43:20.425Z,6.13
2023-05-25T05:45:47.265Z,6.80
2023-05-25T05:48:14.100Z,6.30
2023-05-25T05:50:42.262Z,6.67
2023-05-25T05:53:10.049Z,6.50
2023-05-25T05:55:36.898Z,6.00
2023-05-25T05:58:03.725Z,7.20
2023-05-25T06:00:30.556Z,6.40
2023-05-25T06:02:57.427Z,6.57
2023-05-25T06:05:24.278Z,7.43
2023-05-25T06:07:51.055Z,6.90
2023-05-25T06:10:17.811Z,6.00
2023-05-25T06:12:44.573Z,5.97
2023-05-25T06:15:11.725Z,5.20
2023-05-25T06:17:38.401Z,5.07
2023-05-25T06:20:06.671Z,5.57
2023-05-25T06:22:33.591Z,6.17
2023-05-25T06:25:04.700Z,7.37
2023-05-25T06:27:31.358Z,6.33
2023-05-25T06:29:58.064Z,6.07
2023-05-25T06:32:24.725Z,5.03
2023-05-25T06:34:51.373Z,6.10
2023-05-25T06:37:18.122Z,5.70
2023-05-25T06:39:44.898Z,5.37
2023-05-25T06:42:11.837Z,5.53
2023-05-25T06:44:38.760Z,5.77
2023-05-25T06:47:05.699Z,6.03
2023-05-25T06:49:32.862Z,6.30
2023-05-25T06:51:59.713Z,6.17
2023-05-25T06:54:27.125Z,5.73
2023-05-25T06:56:53.953Z,5.80
2023-05-25T06:59:20.713Z,5.23
2023-05-25T07:01:47.682Z,5.30
2023-05-25T07:04:14.499Z,5.30
2023-05-25T07:06:41.186Z,5.00
2023-05-25T07:09:07.921Z,5.40
2023-05-25T07:11:34.653Z,4.80
2023-05-25T07:14:01.677Z,5.17
2023-05-25T07:16:28.508Z,4.80
2023-05-25T07:18:55.231Z,4.60
2023-05-25T07:21:21.940Z,4.37
2023-05-25T07:23:48.718Z,4.53
2023-05-25T07:26:15.778Z,4.20
2023-05-25T07:28:42.461Z,4.13
2023-05-25T07:31:11.157Z,4.00
2023-05-25T07:33:37.788Z,4.33
2023-05-25T07:36:04.772Z,4.50
2023-05-25T07:38:31.486Z,4.33
2023-05-25T07:40:58.140Z,3.90
2023-05-25T07:43:24.976Z,4.10
2023-05-25T07:45:51.724Z,4.23
2023-05-25T07:48:18.456Z,3.83
2023-05-25T07:50:45.186Z,3.63
2023-05-25T07:53:11.825Z,4.17
2023-05-25T07:55:38.572Z,4.13
2023-05-25T07:58:07.479Z,3.50
2023-05-25T08:00:34.688Z,3.60
2023-05-25T08:03:05.060Z,3.13
2023-05-25T08:05:31.880Z,3.70
2023-05-25T08:07:58.643Z,4.23
2023-05-25T08:10:34.934Z,3.83
2023-05-25T08:13:01.652Z,3.60
2023-05-25T08:15:28.635Z,3.43
2023-05-25T08:17:56.858Z,3.17
2023-05-25T08:20:24.974Z,3.57
2023-05-25T08:22:53.723Z,3.33
2023-05-25T08:25:20.849Z,3.23
2023-05-25T08:27:47.616Z,2.80
2023-05-25T08:30:17.496Z,3.10
2023-05-25T08:32:44.287Z,2.53
2023-05-25T08:35:11.079Z,1.87
2023-05-25T08:37:38.014Z,2.63
2023-05-25T08:40:08.050Z,2.53
2023-05-25T08:42:34.892Z,2.73
2023-05-25T08:45:02.972Z,3.20
2023-05-25T08:47:33.829Z,3.00
2023-05-25T08:50:01.858Z,3.30
2023-05-25T08:52:33.263Z,3.60
2023-05-25T08:55:04.139Z,3.00
2023-05-25T08:57:40.843Z,3.90
2023-05-25T09:00:11.674Z,3.33
2023-05-25T09:03:02.648Z,3.00
2023-05-25T09:05:29.543Z,4.10
2023-05-25T09:07:56.911Z,3.93
2023-05-25T09:10:26.494Z,4.20
2023-05-25T09:12:55.066Z,3.83
2023-05-25T09:15:21.932Z,3.90
2023-05-25T09:17:48.877Z,3.37
2023-05-25T09:20:16.699Z,3.07
2023-05-25T09:22:44.423Z,3.57
2023-05-25T09:25:12.070Z,3.27
2023-05-25T09:27:38.903Z,2.37
2023-05-25T09:30:06.750Z,2.70
2023-05-25T09:32:33.657Z,3.00
2023-05-25T09:35:14.724Z,2.67
2023-05-25T09:37:42.944Z,3.00
2023-05-25T09:40:14.780Z,2.70
2023-05-25T09:42:42.758Z,3.27
2023-05-25T09:45:09.675Z,2.73
2023-05-25T09:47:36.939Z,3.07
2023-05-25T09:50:04.092Z,3.23
2023-05-25T09:52:31.578Z,3.80
2023-05-25T09:54:58.181Z,3.43
2023-05-25T09:57:27.028Z,3.80
2023-05-25T09:59:54.126Z,3.17
2023-05-25T10:02:21.209Z,4.67
2023-05-25T10:04:48.708Z,3.50
2023-05-25T10:07:16.237Z,3.20
2023-05-25T10:09:46.169Z,3.30
2023-05-25T10:12:18.202Z,3.30
2023-05-25T10:14:46.935Z,3.30
2023-05-25T10:17:17.752Z,3.30
2023-05-25T10:19:56.587Z,3.07
2023-05-25T10:22:36.501Z,3.13
2023-05-25T10:25:06.304Z,3.30
2023-05-25T10:27:41.224Z,2.87
2023-05-25T10:30:09.724Z,2.60
2023-05-25T10:32:37.543Z,2.97
2023-05-25T10:35:06.300Z,3.03
2023-05-25T10:37:34.359Z,3.20
2023-05-25T10:40:02.170Z,3.40
2023-05-25T10:42:29.893Z,3.13
2023-05-25T10:44:57.822Z,3.10
2023-05-25T10:47:25.053Z,3.60
2023-05-25T10:49:56.268Z,4.37
2023-05-25T10:52:27.872Z,3.70
2023-05-25T10:55:04.250Z,3.20
2023-05-25T10:57:31.653Z,3.40
2023-05-25T11:00:06.631Z,3.90
2023-05-25T11:02:51.645Z,3.03
2023-05-25T11:05:27.828Z,3.33
2023-05-25T11:07:56.294Z,3.50
2023-05-25T11:10:41.976Z,3.60
2023-05-25T11:13:40.403Z,3.17
2023-05-25T11:16:12.471Z,3.03
2023-05-25T11:18:41.674Z,3.53
2023-05-25T11:21:21.457Z,2.97
2023-05-25T11:24:06.896Z,3.30
2023-05-25T11:26:34.732Z,3.37
2023-05-25T11:29:12.157Z,2.80
2023-05-25T11:31:43.379Z,2.97
2023-05-25T11:34:12.092Z,3.23
2023-05-25T11:36:39.482Z,3.20
2023-05-25T11:39:16.995Z,3.53
2023-05-25T11:42:04.389Z,3.33
2023-05-25T11:44:33.919Z,3.43
2023-05-25T11:47:08.333Z,3.43
2023-05-25T11:49:38.780Z,2.53
2023-05-25T11:52:07.204Z,2.33
2023-05-25T11:54:34.973Z,2.33
2023-05-25T11:57:03.104Z,1.80
2023-05-25T11:59:32.488Z,2.50
2023-05-25T12:02:04.647Z,2.33
2023-05-25T12:04:34.874Z,2.30
2023-05-25T12:07:03.727Z,2.40
2023-05-25T12:09:31.029Z,2.53
2023-05-25T12:11:58.213Z,2.53
2023-05-25T12:14:25.558Z,2.10
2023-05-25T12:16:52.931Z,2.17
2023-05-25T12:19:20.191Z,2.23
2023-05-25T12:21:47.982Z,2.50
2023-05-25T12:24:14.844Z,2.40
2023-05-25T12:26:57.535Z,2.20
2023-05-25T12:29:26.125Z,2.17
2023-05-25T12:31:53.132Z,2.50
2023-05-25T12:34:21.224Z,2.53
2023-05-25T12:36:52.544Z,2.20
2023-05-25T12:39:34.624Z,2.30
2023-05-25T12:42:02.968Z,2.27
2023-05-25T12:44:31.677Z,2.57
2023-05-25T12:47:28.124Z,1.83
2023-05-25T12:50:11.737Z,2.37
2023-05-25T12:52:41.301Z,2.27
2023-05-25T12:55:21.592Z,2.30
2023-05-25T12:57:52.747Z,2.27
2023-05-25T13:00:22.126Z,2.07
2023-05-25T13:02:50.519Z,2.03
2023-05-25T13:05:21.929Z,2.40
2023-05-25T13:07:49.062Z,1.90
2023-05-25T13:10:19.183Z,1.87
2023-05-25T13:12:47.674Z,1.97
2023-05-25T13:15:21.068Z,2.00
2023-05-25T13:17:49.078Z,1.70
2023-05-25T13:20:16.358Z,1.87
2023-05-25T13:22:44.970Z,1.70
2023-05-25T13:25:13.138Z,2.00
2023-05-25T13:27:47.214Z,1.83
2023-05-25T13:30:14.634Z,1.70
2023-05-25T13:32:43.497Z,1.57
2023-05-25T13:35:19.515Z,1.67
2023-05-25T13:37:46.546Z,1.70
2023-05-25T13:40:13.756Z,1.70
2023-05-25T13:42:40.847Z,1.67
2023-05-25T13:45:08.050Z,1.60
2023-05-25T13:47:35.005Z,1.90
2023-05-25T13:50:02.699Z,1.60
2023-05-25T13:52:29.821Z,2.00
2023-05-25T13:54:56.606Z,1.70
2023-05-25T13:57:23.226Z,1.80
2023-05-25T13:59:49.833Z,1.80
2023-05-25T14:02:16.701Z,1.93
2023-05-25T14:04:43.353Z,1.73
2023-05-25T14:07:10.162Z,1.90
2023-05-25T14:09:36.990Z,1.83
2023-05-25T14:12:04.037Z,1.80
2023-05-25T14:14:32.908Z,1.97
2023-05-25T14:17:01.303Z,2.27
2023-05-25T14:19:28.798Z,1.97
2023-05-25T14:22:11.766Z,1.80
2023-05-25T14:24:39.775Z,2.20
2023-05-25T14:27:07.445Z,1.83
2023-05-25T14:29:34.503Z,1.77
2023-05-25T14:32:02.134Z,1.70
2023-05-25T14:34:29.674Z,1.80
2023-05-25T14:36:56.405Z,1.73
2023-05-25T14:39:23.223Z,1.67
2023-05-25T14:41:49.967Z,2.03
2023-05-25T14:44:16.712Z,1.80
2023-05-25T14:46:43.465Z,1.80
2023-05-25T14:49:10.532Z,2.00
2023-05-25T14:51:38.094Z,2.30
2023-05-25T14:54:07.300Z,2.00
2023-05-25T14:56:34.418Z,2.23
2023-05-25T14:59:01.180Z,1.97
2023-05-25T15:01:29.482Z,1.57
2023-05-25T15:03:56.736Z,2.07
2023-05-25T15:06:23.576Z,1.87
2023-05-25T15:08:50.917Z,1.90
2023-05-25T15:11:18.741Z,2.00
2023-05-25T15:13:45.687Z,1.87
2023-05-25T15:16:13.840Z,1.90
2023-05-25T15:18:40.624Z,1.87
2023-05-25T15:21:07.290Z,1.90
2023-05-25T15:23:34.043Z,2.00
2023-05-25T15:26:04.330Z,1.93
2023-05-25T15:28:31.421Z,1.93
2023-05-25T15:30:59.949Z,1.90
2023-05-25T15:33:40.012Z,2.00
2023-05-25T15:36:15.230Z,2.10
2023-05-25T15:38:43.450Z,2.40
2023-05-25T15:41:11.552Z,2.50
2023-05-25T15:43:38.280Z,2.60
2023-05-25T15:46:05.008Z,2.30
2023-05-25T15:48:31.687Z,2.80
2023-05-25T15:50:58.331Z,2.50
2023-05-25T15:53:25.058Z,2.50
2023-05-25T15:55:51.893Z,2.50
2023-05-25T15:58:18.629Z,2.37
2023-05-25T16:00:45.425Z,2.63
2023-05-25T16:03:12.344Z,2.43
2023-05-25T16:05:39.036Z,2.43
2023-05-25T16:08:05.701Z,2.53
2023-05-25T16:10:32.430Z,3.10
2023-05-25T16:12:59.081Z,2.13
2023-05-25T16:15:25.996Z,2.93
2023-05-25T16:17:52.756Z,2.63
2023-05-25T16:20:19.460Z,2.83
2023-05-25T16:22:46.339Z,3.10
2023-05-25T16:25:13.027Z,3.00
2023-05-25T16:27:39.768Z,4.07
2023-05-25T16:30:07.029Z,3.83
2023-05-25T16:32:33.698Z,3.30
2023-05-25T16:35:00.485Z,3.53
2023-05-25T16:37:27.606Z,3.27
2023-05-25T16:39:54.224Z,3.67
2023-05-25T16:42:21.186Z,3.77
2023-05-25T16:44:48.010Z,4.33
2023-05-25T16:47:14.797Z,3.43
2023-05-25T16:49:41.492Z,3.60
2023-05-25T16:52:09.800Z,3.57
2023-05-25T16:54:36.457Z,3.60
2023-05-25T16:57:03.268Z,3.93
2023-05-25T16:59:29.996Z,3.67
2023-05-25T17:01:56.765Z,4.10
2023-05-25T17:04:23.468Z,4.13
2023-05-25T17:06:50.118Z,3.93
2023-05-25T17:09:16.938Z,6.03
2023-05-25T17:11:43.604Z,5.07
2023-05-25T17:14:10.550Z,4.73
2023-05-25T17:16:37.347Z,5.73
2023-05-25T17:19:04.004Z,4.93
2023-05-25T17:21:30.929Z,6.93
2023-05-25T17:23:57.711Z,5.23
2023-05-25T17:26:24.343Z,5.13
2023-05-25T17:28:51.076Z,5.47
2023-05-25T17:31:17.782Z,4.47
2023-05-25T17:33:44.610Z,4.97
2023-05-25T17:36:11.232Z,4.80
2023-05-25T17:38:38.184Z,4.33
2023-05-25T17:41:04.916Z,5.77
2023-05-25T17:43:31.547Z,5.27
2023-05-25T17:45:59.225Z,5.83
2023-05-25T17:48:26.019Z,5.93
2023-05-25T17:50:52.744Z,4.93
2023-05-25T17:53:19.372Z,5.07
2023-05-25T17:55:46.207Z,5.70
2023-05-25T17:58:13.072Z,5.13
2023-05-25T18:00:39.808Z,4.90
2023-05-25T18:03:06.681Z,5.03
2023-05-25T18:05:33.384Z,5.70
2023-05-25T18:08:00.180Z,5.33
2023-05-25T18:10:27.075Z,5.77
2023-05-25T18:12:54.292Z,6.13
2023-05-25T18:15:21.856Z,6.40
2023-05-25T18:17:48.653Z,6.43
2023-05-25T18:20:15.500Z,6.60
2023-05-25T18:22:42.332Z,6.73
2023-05-25T18:25:09.416Z,6.10
2023-05-25T18:27:41.943Z,5.53
2023-05-25T18:30:09.163Z,5.20
2023-05-25T18:32:35.956Z,4.63
2023-05-25T18:35:02.718Z,4.33
2023-05-25T18:37:31.271Z,4.73
2023-05-25T18:39:57.950Z,4.43
2023-05-25T18:42:24.611Z,4.90
2023-05-25T18:44:51.339Z,4.80
2023-05-25T18:47:18.599Z,4.90
2023-05-25T18:49:45.481Z,5.87
2023-05-25T18:52:12.219Z,5.43
2023-05-25T18:54:39.659Z,5.23
2023-05-25T18:57:07.251Z,4.23
2023-05-25T18:59:33.970Z,4.20
2023-05-25T19:02:01.532Z,3.43
2023-05-25T19:04:28.354Z,3.80
2023-05-25T19:06:55.085Z,4.27
2023-05-25T19:09:21.734Z,3.40
2023-05-25T19:11:48.356Z,3.60
2023-05-25T19:14:15.063Z,3.57
2023-05-25T19:16:41.869Z,3.40
2023-05-25T19:19:08.606Z,3.47
2023-05-25T19:21:36.541Z,3.13
2023-05-25T19:24:03.192Z,2.80
2023-05-25T19:26:29.868Z,3.20
2023-05-25T19:28:57.417Z,3.43
2023-05-25T19:31:24.130Z,3.03
2023-05-25T19:33:50.965Z,3.20
2023-05-25T19:36:17.658Z,3.17
2023-05-25T19:38:44.463Z,3.07
2023-05-25T19:41:11.228Z,3.13
2023-05-25T19:43:37.988Z,4.13
2023-05-25T19:46:04.778Z,3.70
2023-05-25T19:48:31.896Z,3.70
2023-05-25T19:50:58.648Z,3.27
2023-05-25T19:53:25.637Z,3.67
2023-05-25T19:55:52.283Z,3.93
2023-05-25T19:58:18.959Z,3.27
2023-05-25T20:00:45.933Z,3.50
2023-05-25T20:03:12.750Z,3.47
2023-05-25T20:05:39.844Z,3.20
2023-05-25T20:08:06.486Z,3.33
2023-05-25T20:10:38.892Z,3.67
2023-05-25T20:13:07.497Z,3.23
2023-05-25T20:15:34.681Z,3.20
2023-05-25T20:18:04.567Z,3.50
2023-05-25T20:20:31.436Z,5.40
2023-05-25T20:22:58.232Z,5.67
2023-05-25T20:25:24.874Z,4.70
2023-05-25T20:27:51.551Z,4.50
2023-05-25T20:30:18.251Z,5.27
2023-05-25T20:32:44.951Z,4.97
2023-05-25T20:35:13.422Z,4.23
2023-05-25T20:37:40.121Z,4.20
2023-05-25T20:40:07.246Z,4.37
2023-05-25T20:42:33.954Z,4.00
2023-05-25T20:45:00.671Z,4.00
2023-05-25T20:47:27.408Z,3.90
2023-05-25T20:49:54.054Z,3.40
2023-05-25T20:52:21.461Z,3.43
2023-05-25T20:54:48.328Z,3.23
2023-05-25T20:57:15.283Z,3.07
2023-05-25T20:59:41.950Z,4.13
2023-05-25T21:02:08.741Z,3.47
2023-05-25T21:04:36.285Z,3.30
2023-05-25T21:07:03.042Z,3.47
2023-05-25T21:09:29.677Z,3.40
2023-05-25T21:11:56.388Z,2.80
2023-05-25T21:14:23.119Z,2.17
2023-05-25T21:16:50.168Z,2.20
2023-05-25T21:19:17.384Z,2.17
2023-05-25T21:21:44.203Z,1.93
2023-05-25T21:24:10.991Z,1.83
2023-05-25T21:26:37.707Z,1.80
2023-05-25T21:29:04.398Z,1.43
2023-05-25T21:31:31.122Z,1.43
2023-05-25T21:33:59.359Z,2.20
2023-05-25T21:36:26.855Z,1.43
2023-05-25T21:38:53.544Z,1.43
2023-05-25T21:41:20.344Z,1.50
2023-05-25T21:43:47.111Z,1.67
2023-05-25T21:46:13.871Z,1.70
2023-05-25T21:48:40.593Z,2.20
2023-05-25T21:51:07.264Z,1.60
2023-05-25T21:53:33.921Z,2.20
2023-05-25T21:56:00.583Z,2.27
2023-05-25T21:58:27.237Z,2.20
2023-05-25T22:00:53.930Z,1.50
2023-05-25T22:03:20.770Z,1.90
2023-05-25T22:05:47.446Z,1.50
2023-05-25T22:08:14.117Z,1.57
2023-05-25T22:10:41.211Z,1.50
2023-05-25T22:13:07.936Z,1.60
2023-05-25T22:15:34.896Z,1.60
2023-05-25T22:18:02.636Z,1.80
2023-05-25T22:20:29.336Z,1.20
2023-05-25T22:22:55.980Z,1.30
2023-05-25T22:25:22.946Z,1.50
2023-05-25T22:27:49.569Z,1.60
2023-05-25T22:30:16.369Z,1.50
2023-05-25T22:32:43.070Z,1.43
2023-05-25T22:35:09.790Z,1.20
2023-05-25T22:37:36.460Z,1.63
2023-05-25T22:40:05.078Z,1.90
2023-05-25T22:42:31.861Z,1.60
2023-05-25T22:44:58.957Z,1.40
2023-05-25T22:47:25.705Z,1.17
2023-05-25T22:49:52.453Z,1.40
2023-05-25T22:52:19.248Z,1.50
2023-05-25T22:54:45.919Z,1.20
2023-05-25T22:57:12.585Z,1.63
2023-05-25T22:59:39.233Z,1.07
2023-05-25T23:02:06.147Z,1.80
2023-05-25T23:04:35.182Z,1.43
2023-05-25T23:07:02.013Z,1.53
2023-05-25T23:09:28.704Z,1.07
2023-05-25T23:11:55.396Z,1.40
2023-05-25T23:14:22.135Z,1.50
2023-05-25T23:16:49.064Z,1.37
2023-05-25T23:19:16.922Z,1.30
2023-05-25T23:21:44.194Z,1.00
2023-05-25T23:24:10.989Z,1.67
2023-05-25T23:26:37.635Z,1.23
2023-05-25T23:29:04.296Z,1.40
2023-05-25T23:31:31.442Z,1.50
2023-05-25T23:33:58.161Z,1.20
2023-05-25T23:36:26.271Z,1.07
2023-05-25T23:38:53.283Z,1.10
2023-05-25T23:41:21.209Z,1.10
2023-05-25T23:43:47.930Z,1.00
2023-05-25T23:46:16.366Z,0.87
2023-05-25T23:48:44.328Z,1.00
2023-05-25T23:51:11.182Z,0.90
2023-05-25T23:53:39.194Z,1.00
2023-05-25T23:56:06.081Z,0.77
2023-05-25T23:58:32.810Z,1.00
